Time,TemperatureC,DewpointC,PressurehPa,WindDirection,WindDirectionDegrees,WindSpeedKMH,WindSpeedGustKMH,Humidity,HourlyPrecipMM,Conditions,Clouds,dailyrainMM,SolarRadiationWatts/m^2,UVIndex,SoftwareType,DateUTC
2026-09-06 00:04:58,9.5,4.9,1003.4,WNW,300,0,0,73,0.0,,,0.0,0,0,n/a,2026-09-05T12:04:58Z
2026-09-06 00:09:55,9.5,5.1,1003.2,WNW,300,0,1.6,73.9,0.0,,,0.0,0,0,n/a,2026-09-05T12:09:55Z
2026-09-06 00:14:59,9.5,5.2,1003.2,WNW,300,0,1.9,74.4,0.0,,,0.0,0,0,n/a,2026-09-05T12:14:59Z
2026-09-06 00:19:57,9.6,5.5,1003.2,WNW,300,0.4,1.9,75.7,0.0,,,0.0,0,0,n/a,2026-09-05T12:19:57Z
2026-09-06 00:24:58,9.6,5.6,1003.2,WNW,300,0.2,1.9,76,0.0,,,0.0,0,0,n/a,2026-09-05T12:24:58Z
2026-09-06 00:29:59,9.5,5.5,1003.4,WNW,300,1.8,3.7,76,0.0,,,0.0,0,0,n/a,2026-09-05T12:29:59Z
2026-09-06 00:34:59,9.5,5.4,1003.5,WNW,300,0.8,3.7,75.7,0.0,,,0.0,0,0,n/a,2026-09-05T12:34:59Z
2026-09-06 00:39:55,9.5,5.5,1003.4,WNW,300,1.6,3.7,76,0.0,,,0.0,0,0,n/a,2026-09-05T12:39:55Z
2026-09-06 00:44:55,9.4,5.4,1003.5,WNW,300,2.2,3.7,75.7,0.0,,,0.0,0,0,n/a,2026-09-05T12:44:55Z
2026-09-06 00:49:55,9.4,5.3,1003.6,WNW,300,1,3.7,75.4,0.0,,,0.0,0,0,n/a,2026-09-05T12:49:55Z
2026-09-06 00:54:55,9.4,5.4,1003.6,WNW,300,2.1,3.7,75.8,0.0,,,0.0,0,0,n/a,2026-09-05T12:54:55Z
2026-09-06 00:59:55,9.4,5.4,1003.7,WNW,300,0.9,3.7,76,0.0,,,0.0,0,0,n/a,2026-09-05T12:59:55Z
2026-09-06 01:04:55,9.4,5.4,1003.6,WNW,300,1.2,6.4,76,0.0,,,0.0,0,0,n/a,2026-09-05T13:04:55Z
2026-09-06 01:09:57,9.5,5.3,1003.7,WNW,300,1.6,5.6,75.4,0.0,,,0.0,0,0,n/a,2026-09-05T13:09:57Z
2026-09-06 01:14:57,9.6,5.6,1003.8,WNW,300,1,5.6,75.8,0.0,,,0.0,0,0,n/a,2026-09-05T13:14:57Z
2026-09-06 01:19:55,9.8,5.6,1003.8,WNW,300,0.8,5.6,75.2,0.0,,,0.0,0,0,n/a,2026-09-05T13:19:55Z
2026-09-06 01:24:55,9.9,5.7,1003.8,WNW,300,0.9,3.7,75,0.0,,,0.0,0,0,n/a,2026-09-05T13:24:55Z
2026-09-06 01:29:55,9.9,5.6,1003.8,WNW,300,0.2,1.9,74.4,0.0,,,0.0,0,0,n/a,2026-09-05T13:29:55Z
2026-09-06 01:34:54,10,5.5,1003.9,WNW,300,1.1,3.7,74,0.0,,,0.0,0,0,n/a,2026-09-05T13:34:54Z
2026-09-06 01:39:56,10.1,5.7,1004.0,WNW,300,1.5,3.7,74.5,0.0,,,0.0,0,0,n/a,2026-09-05T13:39:56Z
2026-09-06 01:44:56,10.1,5.7,1004.0,WNW,300,1.3,3.7,74.5,0.0,,,0.0,0,0,n/a,2026-09-05T13:44:56Z
2026-09-06 01:49:57,10.1,5.8,1004.0,WNW,300,1.5,5.6,74.7,0.0,,,0.0,0,0,n/a,2026-09-05T13:49:57Z
2026-09-06 01:54:54,10.1,5.7,1004.0,WNW,300,2.5,5.6,74.2,0.0,,,0.0,0,0,n/a,2026-09-05T13:54:54Z
2026-09-06 01:59:54,10.2,5.8,1004.0,SSW,205,2.3,6.4,74,0.0,,,0.0,0,0,n/a,2026-09-05T13:59:54Z
2026-09-06 02:04:56,10.3,6,1004.0,SSE,159,0.1,1.9,74.7,0.0,,,0.0,0,0,n/a,2026-09-05T14:04:56Z
2026-09-06 02:09:55,10.3,5.9,1003.9,SSE,159,0.6,3.7,74.1,0.0,,,0.0,0,0,n/a,2026-09-05T14:09:55Z
2026-09-06 02:14:55,10.3,5.9,1003.8,SW,236,3.6,11.3,74,0.0,,,0.0,0,0,n/a,2026-09-05T14:14:55Z
2026-09-06 02:19:55,10.4,5.9,1003.7,WNW,285,0.6,5.6,74,0.0,,,0.0,0,0,n/a,2026-09-05T14:19:55Z
2026-09-06 02:24:54,10.5,5.9,1003.6,WNW,288,0.6,5.6,73.2,0.0,,,0.0,0,0,n/a,2026-09-05T14:24:54Z
2026-09-06 02:29:57,10.8,6.1,1003.6,WNW,288,1.3,5.6,72.4,0.0,,,0.0,0,0,n/a,2026-09-05T14:29:57Z
2026-09-06 02:34:58,11.1,6.3,1003.6,WNW,287,0.8,3.7,72,0.0,,,0.0,0,0,n/a,2026-09-05T14:34:58Z
2026-09-06 02:39:57,11.3,6.2,1003.6,West,259,3.1,5.6,71.1,0.0,,,0.0,0,0,n/a,2026-09-05T14:39:57Z
2026-09-06 02:44:58,11.3,6,1003.6,West,259,2.6,5.6,70,0.0,,,0.0,0,0,n/a,2026-09-05T14:44:58Z
2026-09-06 02:49:56,11.3,6,1003.7,West,259,2.6,5.6,69.8,0.0,,,0.0,0,0,n/a,2026-09-05T14:49:56Z
2026-09-06 02:54:58,11.3,5.9,1003.6,West,259,1.2,5.6,69.6,0.0,,,0.0,0,0,n/a,2026-09-05T14:54:58Z
2026-09-06 02:59:56,11.2,6.2,1003.6,West,259,0.1,1.9,71,0.0,,,0.0,0,0,n/a,2026-09-05T14:59:56Z
2026-09-06 03:04:56,11.1,6.1,1003.7,West,259,0,0,71,0.0,,,0.0,0,0,n/a,2026-09-05T15:04:56Z
2026-09-06 03:09:55,11,5.9,1003.7,West,259,0,0,70.8,0.0,,,0.0,0,0,n/a,2026-09-05T15:09:55Z
2026-09-06 03:14:54,10.9,5.9,1003.6,West,259,0,0,70.9,0.0,,,0.0,0,0,n/a,2026-09-05T15:14:54Z
2026-09-06 03:19:54,10.8,5.8,1003.5,West,259,0,0,71,0.0,,,0.0,0,0,n/a,2026-09-05T15:19:54Z
2026-09-06 03:24:54,10.7,5.7,1003.4,West,259,0,0,71,0.0,,,0.0,0,0,n/a,2026-09-05T15:24:54Z
2026-09-06 03:29:54,10.6,6,1003.5,West,259,0,0,72.9,0.0,,,0.0,0,0,n/a,2026-09-05T15:29:54Z
2026-09-06 03:34:59,10.6,6.2,1003.5,West,259,0,0,74.4,0.0,,,0.0,0,0,n/a,2026-09-05T15:34:59Z
2026-09-06 03:39:55,10.5,6.2,1003.5,West,259,0,0,75,0.0,,,0.0,0,0,n/a,2026-09-05T15:39:55Z
2026-09-06 03:44:56,10.4,6.2,1003.5,West,259,0,0,75,0.0,,,0.0,0,0,n/a,2026-09-05T15:44:56Z
2026-09-06 03:49:54,10.2,6,1003.4,West,259,0,0,75,0.0,,,0.0,0,0,n/a,2026-09-05T15:49:54Z
2026-09-06 03:54:54,10.1,5.9,1003.4,West,259,0,0,75,0.0,,,0.0,0,0,n/a,2026-09-05T15:54:54Z
2026-09-06 03:59:59,10,6,1003.5,West,259,0,0,76,0.0,,,0.0,0,0,n/a,2026-09-05T15:59:59Z
2026-09-06 04:04:59,10,5.9,1003.6,West,259,0,0,76,0.0,,,0.0,0,0,n/a,2026-09-05T16:04:59Z
2026-09-06 04:09:57,9.9,6,1003.7,West,259,0,0,76.4,0.0,,,0.0,0,0,n/a,2026-09-05T16:09:57Z
2026-09-06 04:14:57,9.9,6.1,1003.9,West,259,0,0,77,0.0,,,0.0,0,0,n/a,2026-09-05T16:14:57Z
2026-09-06 04:19:59,10.1,6.4,1004.0,SE,125,7.2,18.5,78,0.0,,,0.0,0,0,n/a,2026-09-05T16:19:59Z
2026-09-06 04:24:56,11,7.7,1004.2,ESE,109,11,18.5,80,0.0,,,0.0,0,0,n/a,2026-09-05T16:24:56Z
2026-09-06 04:29:55,11.3,8,1004.3,ESE,104,11.1,18.5,80,0.0,,,0.0,0,0,n/a,2026-09-05T16:29:55Z
2026-09-06 04:34:55,11.2,8,1004.3,East,101,11.4,20.9,80.5,0.0,,,0.0,0,0,n/a,2026-09-05T16:34:55Z
2026-09-06 04:39:55,11.1,8,1004.3,ESE,105,13.1,24.1,81,0.0,,,0.0,0,0,n/a,2026-09-05T16:39:55Z
2026-09-06 04:44:54,11.1,7.9,1004.5,East,95,12.1,22.5,81,0.0,,,0.0,0,0,n/a,2026-09-05T16:44:54Z
2026-09-06 04:49:54,11,8,1004.6,ESE,104,11.6,20.9,81.6,0.0,,,0.0,0,0,n/a,2026-09-05T16:49:54Z
2026-09-06 04:54:59,10.9,8,1004.7,ESE,121,13.7,22.5,82.2,0.0,,,0.0,0,0,n/a,2026-09-05T16:54:59Z
2026-09-06 04:59:59,10.8,8,1004.7,ESE,107,12.7,19.3,83,0.0,,,0.0,0,0,n/a,2026-09-05T16:59:59Z
2026-09-06 05:04:54,10.6,8,1004.7,ESE,107,13.9,22.5,84,0.0,,,0.0,0,0,n/a,2026-09-05T17:04:54Z
2026-09-06 05:09:54,10.6,7.9,1004.7,ESE,110,14.3,24.1,84,0.0,,,0.0,0,0,n/a,2026-09-05T17:09:54Z
2026-09-06 05:14:56,10.5,8,1004.7,ESE,109,14.5,27.8,84.6,0.0,,,0.0,0,0,n/a,2026-09-05T17:14:56Z
2026-09-06 05:19:57,10.5,8.1,1004.7,ESE,114,12.7,20.4,85,0.0,,,0.0,0,0,n/a,2026-09-05T17:19:57Z
2026-09-06 05:24:58,10.5,8.1,1004.7,East,101,14.5,24.1,85,0.0,,,0.0,0,0,n/a,2026-09-05T17:24:58Z
2026-09-06 05:29:58,10.5,8.1,1004.7,ESE,108,14.5,27.8,85,0.0,,,0.0,0,0,n/a,2026-09-05T17:29:58Z
2026-09-06 05:34:59,10.4,8.1,1004.7,ESE,111,13.4,24.1,85.4,0.0,,,0.0,0,0,n/a,2026-09-05T17:34:59Z
2026-09-06 05:39:54,10.4,8.2,1004.7,East,95,13.2,20.9,86,0.0,,,0.0,0,0,n/a,2026-09-05T17:39:54Z
2026-09-06 05:44:56,10.3,8.1,1004.8,ESE,107,12.8,22.5,86,0.0,,,0.0,0,0,n/a,2026-09-05T17:44:56Z
2026-09-06 05:49:56,10.2,8,1004.8,ESE,113,14.6,31.5,86,0.0,,,0.0,0,0,n/a,2026-09-05T17:49:56Z
2026-09-06 05:54:56,10.2,8,1004.9,ESE,114,13.7,22.5,86,0.0,,,0.0,0,0,n/a,2026-09-05T17:54:56Z
2026-09-06 05:59:55,10.2,8.2,1004.9,ESE,121,14.1,20.9,86.9,0.0,,,0.0,0,0,n/a,2026-09-05T17:59:55Z
2026-09-06 06:04:56,10.2,8.2,1004.9,ESE,112,13.7,25.7,87,0.0,,,0.0,0,0,n/a,2026-09-05T18:04:56Z
2026-09-06 06:09:58,10.2,8.2,1004.8,ESE,111,9.7,25.9,87,0.0,,,0.0,0,0,n/a,2026-09-05T18:09:58Z
2026-09-06 06:14:58,10.2,8.2,1004.8,ESE,108,11.8,19.3,87,0.0,,,0.0,0,0,n/a,2026-09-05T18:14:58Z
2026-09-06 06:19:58,10.2,8.2,1004.9,ESE,110,12.1,22.5,87,0.0,,,0.0,0,0,n/a,2026-09-05T18:19:58Z
2026-09-06 06:24:59,10.2,8.1,1004.8,ESE,110,11.7,22.2,87,0.0,,,0.0,0,0,n/a,2026-09-05T18:24:59Z
2026-09-06 06:29:54,10.2,8.1,1004.8,ESE,117,12.3,20.9,87,0.0,,,0.0,0,0,n/a,2026-09-05T18:29:54Z
2026-09-06 06:34:55,10.2,8.1,1004.9,ESE,113,12.2,22.5,87,0.0,,,0.0,0,0,n/a,2026-09-05T18:34:55Z
2026-09-06 06:39:59,10.1,8,1004.9,ESE,109,11,20.9,87,0.0,,,0.0,0,0,n/a,2026-09-05T18:39:59Z
2026-09-06 06:44:59,10.1,8,1004.9,ESE,118,11.8,20.9,87,0.0,,,0.0,0,0,n/a,2026-09-05T18:44:59Z
2026-09-06 06:49:59,10,8,1004.7,ESE,119,11.5,22.5,87,0.0,,,0.0,0,0,n/a,2026-09-05T18:49:59Z
2026-09-06 06:54:59,10,8,1004.7,ESE,108,13.8,22.5,87.3,0.0,,,0.0,0,0,n/a,2026-09-05T18:54:59Z
2026-09-06 06:59:59,10,8.1,1004.6,ESE,109,12.5,22.5,88,0.0,,,0.0,0,0,n/a,2026-09-05T18:59:59Z
2026-09-06 07:04:54,9.9,8.1,1004.7,SE,125,12.5,25.9,88,0.0,,,0.0,0,0,n/a,2026-09-05T19:04:54Z
2026-09-06 07:09:55,9.9,8,1004.8,ESE,117,13,25.9,88,0.0,,,0.0,0,0,n/a,2026-09-05T19:09:55Z
2026-09-06 07:14:55,9.9,8,1004.8,ESE,123,11.8,20.9,88,0.0,,,0.0,0,0,n/a,2026-09-05T19:14:55Z
2026-09-06 07:19:56,9.9,8,1004.8,ESE,121,10,18.5,88,0.0,,,0.0,7,0,n/a,2026-09-05T19:19:56Z
2026-09-06 07:24:55,9.8,7.9,1004.7,SE,124,12,24.1,88,0.0,,,0.0,9,0,n/a,2026-09-05T19:24:55Z
2026-09-06 07:29:56,9.8,7.9,1004.8,ESE,120,11.4,20.9,88,0.0,,,0.0,11,0,n/a,2026-09-05T19:29:56Z
2026-09-06 07:34:56,9.8,7.9,1004.8,ESE,114,10.4,20.4,88,0.0,,,0.0,16,0,n/a,2026-09-05T19:34:56Z
2026-09-06 07:39:58,9.8,7.9,1004.8,ESE,113,12.1,18.5,88,0.0,,,0.0,14,0,n/a,2026-09-05T19:39:58Z
2026-09-06 07:44:57,9.7,7.8,1004.9,ESE,109,11.9,19.3,88,0.0,,,0.0,14,0,n/a,2026-09-05T19:44:57Z
2026-09-06 07:49:58,9.7,7.8,1004.9,ESE,119,12,19.3,88,0.0,,,0.0,12,0,n/a,2026-09-05T19:49:58Z
2026-09-06 07:54:54,9.7,7.8,1005.0,ESE,111,11,20.9,88,0.0,,,0.0,11,0,n/a,2026-09-05T19:54:54Z
2026-09-06 07:59:54,9.7,7.8,1005.0,ESE,107,8.1,14.8,88,0.0,,,0.0,12,0,n/a,2026-09-05T19:59:54Z
2026-09-06 08:04:55,9.7,7.8,1005.1,ESE,118,9.1,19.3,88,0.0,,,0.0,12,0,n/a,2026-09-05T20:04:55Z
2026-09-06 08:09:56,9.6,7.9,1005.1,ESE,118,10.6,20.9,89,0.0,,,0.0,11,0,n/a,2026-09-05T20:09:56Z
2026-09-06 08:14:56,9.6,7.8,1005.1,ESE,110,9.1,16.7,89,0.0,,,0.0,12,0,n/a,2026-09-05T20:14:56Z
2026-09-06 08:19:57,9.6,7.8,1005.1,ESE,112,8.6,19.3,89,0.2,,,0.2,18,0,n/a,2026-09-05T20:19:57Z
2026-09-06 08:24:58,9.5,7.8,1005.2,ESE,120,8.3,18.5,89,0.2,,,0.2,19,0,n/a,2026-09-05T20:24:58Z
2026-09-06 08:29:59,9.5,7.8,1005.3,ESE,121,9.6,18.5,89,0.2,,,0.2,19,0,n/a,2026-09-05T20:29:59Z
2026-09-06 08:34:58,9.5,7.8,1005.3,ESE,116,9.9,25.9,89,0.2,,,0.4,26,0,n/a,2026-09-05T20:34:58Z
2026-09-06 08:39:54,9.5,7.8,1005.2,ESE,118,8.7,16.7,89,0.4,,,0.4,26,0,n/a,2026-09-05T20:39:54Z
2026-09-06 08:44:56,9.5,7.7,1005.2,ESE,118,7.6,18.5,89,0.4,,,0.4,30,0,n/a,2026-09-05T20:44:56Z
2026-09-06 08:49:56,9.4,7.8,1005.2,ESE,112,7,16.7,89.6,0.4,,,0.4,32,0,n/a,2026-09-05T20:49:56Z
2026-09-06 08:54:57,9.4,7.9,1005.3,ESE,116,7.3,16.7,90,0.6,,,0.6,35,0,n/a,2026-09-05T20:54:57Z
2026-09-06 08:59:58,9.4,7.9,1005.2,ESE,109,9.3,18.5,90,0.6,,,0.6,39,0,n/a,2026-09-05T20:59:58Z
2026-09-06 09:04:57,9.4,7.9,1005.2,ESE,108,7.6,14.8,90,0.6,,,0.6,46,0,n/a,2026-09-05T21:04:57Z
2026-09-06 09:09:55,9.4,7.8,1005.1,SE,125,7.3,18.5,90,0.6,,,0.6,47,0,n/a,2026-09-05T21:09:55Z
2026-09-06 09:14:57,9.4,7.8,1005.0,ESE,106,9.6,18.5,90,0.6,,,0.6,49,0,n/a,2026-09-05T21:14:57Z
2026-09-06 09:19:57,9.3,7.8,1005.0,ESE,110,9.2,16.7,90,0.6,,,0.6,58,0,n/a,2026-09-05T21:19:57Z
2026-09-06 09:24:58,9.3,7.8,1005.0,ESE,102,11,19.3,90,0.4,,,0.6,58,0,n/a,2026-09-05T21:24:58Z
2026-09-06 09:29:54,9.3,7.8,1004.9,ESE,115,8.5,18.5,90,0.4,,,0.6,56,0,n/a,2026-09-05T21:29:54Z
2026-09-06 09:34:57,9.3,7.7,1004.8,ESE,106,10.1,18.5,90,0.4,,,0.6,67,0,n/a,2026-09-05T21:34:57Z
2026-09-06 09:39:54,9.3,7.7,1004.8,ESE,122,10.8,20.9,90,0.2,,,0.6,74,0,n/a,2026-09-05T21:39:54Z
2026-09-06 09:44:54,9.3,7.7,1004.7,ESE,112,11.8,22.5,90,0.2,,,0.6,74,0,n/a,2026-09-05T21:44:54Z
2026-09-06 09:49:54,9.3,7.7,1004.7,ESE,111,11.7,24.1,90,0.2,,,0.6,76,0,n/a,2026-09-05T21:49:54Z
2026-09-06 09:54:59,9.3,7.7,1004.6,ESE,116,11.5,19.3,90,0.2,,,0.6,72,0,n/a,2026-09-05T21:54:59Z
2026-09-06 09:59:54,9.3,7.7,1004.6,ESE,120,10.4,20.9,90,0.0,,,0.6,67,0,n/a,2026-09-05T21:59:54Z
2026-09-06 10:04:55,9.3,7.7,1004.5,ESE,116,10.1,20.4,90,0.0,,,0.6,69,0,n/a,2026-09-05T22:04:55Z
2026-09-06 10:09:54,9.3,7.8,1004.5,ESE,117,8,16.7,90,0.0,,,0.6,70,0,n/a,2026-09-05T22:09:54Z
2026-09-06 10:14:55,9.3,7.7,1004.3,ESE,115,8.6,17.7,90,0.0,,,0.6,69,0,n/a,2026-09-05T22:14:55Z
2026-09-06 10:19:55,9.3,7.7,1004.2,ESE,116,10.4,18.5,90,0.0,,,0.6,62,0,n/a,2026-09-05T22:19:55Z
2026-09-06 10:24:54,9.3,7.7,1004.1,East,97,10.6,18.5,90,0.0,,,0.6,53,0,n/a,2026-09-05T22:24:54Z
2026-09-06 10:29:59,9.2,7.7,1004.0,ESE,113,11.3,22.5,90,0.0,,,0.6,53,0,n/a,2026-09-05T22:29:59Z
2026-09-06 10:34:55,9.2,7.7,1004.0,ESE,105,9.7,22.2,90,0.2,,,0.8,65,0,n/a,2026-09-05T22:34:55Z
2026-09-06 10:39:59,9.2,7.7,1003.9,ESE,116,12,19.3,90,0.2,,,0.8,83,0.5,n/a,2026-09-05T22:39:59Z
2026-09-06 10:44:59,9.2,7.6,1003.9,ESE,121,9.8,16.7,90,0.2,,,0.8,93,0.5,n/a,2026-09-05T22:44:59Z
2026-09-06 10:49:59,9.2,7.8,1003.8,ESE,110,10.7,16.7,91,0.2,,,0.8,93,0.5,n/a,2026-09-05T22:49:59Z
2026-09-06 10:54:59,9.2,7.8,1003.6,ESE,118,9.9,18.5,91,0.2,,,0.8,83,0.5,n/a,2026-09-05T22:54:59Z
2026-09-06 10:59:59,9.2,7.8,1003.5,ESE,115,10.4,18.5,91,0.2,,,0.8,91,0.6,n/a,2026-09-05T22:59:59Z
2026-09-06 11:04:55,9.3,7.9,1003.4,ESE,114,10.3,22.5,91,0.2,,,0.8,93,0.6,n/a,2026-09-05T23:04:55Z
2026-09-06 11:09:58,9.3,7.9,1003.2,SE,127,11.2,20.9,91,0.2,,,0.8,100,0.6,n/a,2026-09-05T23:09:58Z
2026-09-06 11:14:59,9.3,7.7,1003.2,ESE,114,9.8,18.5,90.2,0.2,,,0.8,120,0.7,n/a,2026-09-05T23:14:59Z
2026-09-06 11:19:59,9.3,7.7,1003.2,ESE,111,10.5,19.3,90,0.2,,,0.8,120,0.7,n/a,2026-09-05T23:19:59Z
2026-09-06 11:24:57,9.3,7.8,1003.0,ESE,111,9.5,14.8,90,0.2,,,0.8,130,0.8,n/a,2026-09-05T23:24:57Z
2026-09-06 11:29:54,9.4,7.8,1003.0,ESE,116,9,20.9,90,0.2,,,0.8,134,0.8,n/a,2026-09-05T23:29:54Z
2026-09-06 11:34:59,9.4,7.9,1002.8,ESE,115,11.1,19.3,90,0.2,,,0.8,185,1.1,n/a,2026-09-05T23:34:59Z
2026-09-06 11:39:56,9.5,7.9,1002.6,SE,126,10.7,18.5,90,0.0,,,0.8,213,1.3,n/a,2026-09-05T23:39:56Z
2026-09-06 11:44:57,9.6,8,1002.7,SE,126,12,19.3,90,0.0,,,0.8,195,1.1,n/a,2026-09-05T23:44:57Z
2026-09-06 11:49:57,9.6,8,1002.7,ESE,115,10.9,20.9,90,0.0,,,0.8,237,1.5,n/a,2026-09-05T23:49:57Z
2026-09-06 11:54:57,9.7,8.1,1002.4,ESE,109,12.6,20.9,90,0.0,,,0.8,346,1.9,n/a,2026-09-05T23:54:57Z
2026-09-06 11:59:58,9.7,8.2,1002.7,SE,126,13,22.5,90,0.0,,,0.8,230,1.3,n/a,2026-09-05T23:59:58Z
2026-09-06 12:04:53,9.7,8,1002.7,ESE,123,11.7,20.9,89.2,0.0,,,0.8,141,0.9,n/a,2026-09-06T00:04:53Z
2026-09-06 12:09:56,9.7,8,1002.6,ESE,116,12.6,20.9,89.2,0.0,,,0.8,162,1,n/a,2026-09-06T00:09:56Z
2026-09-06 12:14:57,9.6,7.9,1002.6,ESE,120,10.5,18.5,89,0.0,,,0.8,90,0.6,n/a,2026-09-06T00:14:57Z
2026-09-06 12:19:57,9.6,7.8,1002.5,ESE,115,9.7,16.7,89,0.0,,,0.8,69,0.5,n/a,2026-09-06T00:19:57Z
2026-09-06 12:24:57,9.5,7.8,1002.4,ESE,118,8.9,14.8,89,0.0,,,0.8,84,0.6,n/a,2026-09-06T00:24:57Z
2026-09-06 12:29:57,9.5,7.8,1002.4,ESE,115,11.4,22.5,89,0.0,,,0.8,86,0.6,n/a,2026-09-06T00:29:57Z
2026-09-06 12:34:57,9.5,7.9,1002.4,SE,128,9.3,22.2,89.8,0.0,,,0.8,111,0.7,n/a,2026-09-06T00:34:57Z
2026-09-06 12:39:54,9.5,7.9,1002.3,ESE,117,11.5,19.3,90,0.0,,,0.8,128,0.8,n/a,2026-09-06T00:39:54Z
2026-09-06 12:44:59,9.5,7.9,1002.1,ESE,116,11.3,18.5,90,0.0,,,0.8,128,0.8,n/a,2026-09-06T00:44:59Z
2026-09-06 12:49:59,9.5,8,1001.8,ESE,115,11,18.5,90.1,0.2,,,1.0,163,1,n/a,2026-09-06T00:49:59Z
2026-09-06 12:54:59,9.6,8.2,1001.5,ESE,113,7.8,16.7,91,0.2,,,1.0,171,1.1,n/a,2026-09-06T00:54:59Z
2026-09-06 12:59:54,9.6,8.2,1001.3,ESE,114,8.4,14.8,91,0.2,,,1.0,176,1.1,n/a,2026-09-06T00:59:54Z
2026-09-06 13:04:55,9.7,8.3,1001.2,ESE,109,8.5,16.1,91,0.2,,,1.0,230,1.3,n/a,2026-09-06T01:04:55Z
2026-09-06 13:09:58,9.7,8.3,1001.1,ESE,113,10.4,18.5,91,0.2,,,1.2,234,1.4,n/a,2026-09-06T01:09:58Z
2026-09-06 13:14:58,9.7,8.3,1001.1,ESE,109,10.3,20.9,91,0.4,,,1.2,209,1.3,n/a,2026-09-06T01:14:58Z
2026-09-06 13:19:46,9.7,8.3,1001.0,ESE,108,10.1,16.7,91,0.4,,,1.4,125,0.8,n/a,2026-09-06T01:19:46Z
2026-09-06 13:24:54,9.6,8.2,1000.8,ESE,119,11.7,18.5,91,0.6,,,1.4,84,0.5,n/a,2026-09-06T01:24:54Z
2026-09-06 13:29:58,9.5,8.1,1000.5,ESE,118,9.2,18.5,91,1.0,,,1.8,63,0,n/a,2026-09-06T01:29:58Z
2026-09-06 13:34:58,9.4,8.2,1000.3,ESE,118,11,25.9,92,1.2,,,2.0,134,0.8,n/a,2026-09-06T01:34:58Z
2026-09-06 13:39:59,9.4,8.2,1000.1,SE,124,10.9,18.5,92,1.2,,,2.0,146,0.9,n/a,2026-09-06T01:39:59Z
2026-09-06 13:44:51,9.4,8.2,1000.3,ESE,118,9.7,20.9,92,1.4,,,2.2,70,0.5,n/a,2026-09-06T01:44:51Z
2026-09-06 13:49:53,9.4,8.2,1000.4,ESE,120,13.4,22.5,92,1.4,,,2.2,79,0.6,n/a,2026-09-06T01:49:53Z
2026-09-06 13:54:59,9.3,8.1,1000.4,SE,126,10.3,18.5,92,1.2,,,2.2,72,0.5,n/a,2026-09-06T01:54:59Z
2026-09-06 13:57:25,9.4,8.2,1000.3,ESE,122,8.9,18.5,92,1.2,,,2.2,54,0,n/a,2026-09-06T01:57:25Z
2026-09-06 14:09:54,9.3,8.1,1000.1,ESE,111,12,24.1,92,1.2,,,2.2,79,0,n/a,2026-09-06T02:09:54Z
2026-09-06 14:14:55,9.4,8.1,1000.2,ESE,122,11.1,18.5,92,1.4,,,2.4,155,0.8,n/a,2026-09-06T02:14:55Z
2026-09-06 14:19:59,9.4,8.2,1000.1,ESE,112,12.5,20.9,92,1.4,,,2.6,158,0.8,n/a,2026-09-06T02:19:59Z
2026-09-06 14:24:54,9.4,8.2,1000.0,ESE,117,12.5,20.9,92,1.4,,,2.6,141,0.7,n/a,2026-09-06T02:24:54Z
2026-09-06 14:29:55,9.4,8.1,999.9,ESE,122,10.1,18.5,92,1.4,,,2.8,86,0.5,n/a,2026-09-06T02:29:55Z
2026-09-06 14:34:55,9.4,8.2,1000.0,SE,126,7.3,16.1,92,1.6,,,3.0,88,0.6,n/a,2026-09-06T02:34:55Z
2026-09-06 14:39:59,9.4,8.2,1000.0,ESE,122,12.3,22.5,92,1.2,,,3.0,65,0.5,n/a,2026-09-06T02:39:59Z
2026-09-06 14:44:55,9.3,8,999.9,ESE,120,11.6,24.1,92,1.2,,,3.2,46,0,n/a,2026-09-06T02:44:55Z
2026-09-06 14:49:54,9.2,8,1000.0,ESE,116,11.4,19.3,92.2,1.2,,,3.2,69,0.5,n/a,2026-09-06T02:49:54Z
2026-09-06 14:54:58,9.2,8.1,1000.1,ESE,121,11.3,22.5,92.9,1.2,,,3.6,74,0.5,n/a,2026-09-06T02:54:58Z
2026-09-06 14:59:57,9.2,8,1000.2,SE,126,6.5,18.5,92.5,1.4,,,3.6,62,0,n/a,2026-09-06T02:59:57Z
2026-09-06 15:04:54,9.2,8.2,1000.3,ESE,121,6.5,14.8,93,17.2,,,3.6,67,0,n/a,2026-09-06T03:04:54Z
2026-09-06 15:09:57,9.2,8.2,1000.2,SE,130,7.5,14.5,93,17.6,,,4.0,63,0,n/a,2026-09-06T03:09:57Z
2026-09-06 15:14:58,9.2,8.2,1000.2,SE,124,7.5,14.8,93,17.8,,,4.2,62,0,n/a,2026-09-06T03:14:58Z
2026-09-06 15:19:55,9.2,8.2,1000.2,SE,124,5,11.3,93,17.6,,,4.2,90,0,n/a,2026-09-06T03:19:55Z
2026-09-06 15:24:56,9.3,8.2,1000.1,ESE,120,6.4,14.8,93,17.6,,,4.4,98,0,n/a,2026-09-06T03:24:56Z
2026-09-06 15:29:56,9.3,8.2,1000.3,ESE,113,7.2,12.9,93,17.6,,,4.4,70,0,n/a,2026-09-06T03:29:56Z
2026-09-06 15:34:54,9.2,8.2,1000.3,SE,124,6.4,13,93,17.6,,,4.6,62,0,n/a,2026-09-06T03:34:54Z
2026-09-06 15:39:55,9.2,8.2,1000.4,SE,136,7.9,14.8,93,17.4,,,4.6,63,0,n/a,2026-09-06T03:39:55Z
2026-09-06 15:44:54,9.3,8.2,1000.6,SE,133,5.2,14.8,93,17.4,,,4.6,28,0,n/a,2026-09-06T03:44:54Z
2026-09-06 15:49:58,9.3,8.2,1000.7,WSW,241,1.1,5.6,93,17.4,,,4.8,23,0,n/a,2026-09-06T03:49:58Z
2026-09-06 15:54:56,9.3,8.2,1000.7,SW,222,1.2,3.7,93,17.6,,,5.2,39,0,n/a,2026-09-06T03:54:56Z
2026-09-06 15:59:56,9.3,8.2,1000.5,SW,222,0.6,3.7,93,17.6,,,5.4,51,0,n/a,2026-09-06T03:59:56Z
2026-09-06 16:04:54,9.3,8.3,1000.4,SW,222,1,3.7,93,17.8,,,5.6,56,0,n/a,2026-09-06T04:04:54Z
2026-09-06 16:09:54,9.3,8.3,1000.5,SW,222,1.1,3.7,93,2.0,,,5.6,40,0,n/a,2026-09-06T04:09:54Z
2026-09-06 16:14:54,9.3,8.3,1000.4,SW,222,1.1,3.7,93,1.8,,,5.8,25,0,n/a,2026-09-06T04:14:54Z
2026-09-06 16:19:56,9.3,8.2,1000.4,SW,223,2.1,3.7,93,1.6,,,5.8,26,0,n/a,2026-09-06T04:19:56Z
2026-09-06 16:24:59,9.3,8.2,1000.4,SW,223,1.5,3.7,93,1.6,,,5.8,33,0,n/a,2026-09-06T04:24:59Z
2026-09-06 16:29:55,9.3,8.3,1000.6,SW,223,1.3,3.7,93,1.4,,,5.8,33,0,n/a,2026-09-06T04:29:55Z
2026-09-06 16:34:59,9.3,8.3,1000.5,SW,223,1.1,3.7,93,1.4,,,5.8,33,0,n/a,2026-09-06T04:34:59Z
2026-09-06 16:39:59,9.3,8.3,1000.8,SW,223,1.4,3.7,93,1.2,,,5.8,26,0,n/a,2026-09-06T04:39:59Z
2026-09-06 16:44:58,9.4,8.3,1000.9,West,259,2.4,5.6,93,1.2,,,5.8,18,0,n/a,2026-09-06T04:44:58Z
2026-09-06 16:49:56,9.4,8.4,1001.0,West,263,2.2,5.6,93,1.4,,,6.0,21,0,n/a,2026-09-06T04:49:56Z
2026-09-06 16:54:56,9.4,8.4,1001.1,West,267,2.3,5.6,93,1.2,,,6.2,19,0,n/a,2026-09-06T04:54:56Z
2026-09-06 16:59:55,9.4,8.4,1001.3,West,267,1.5,3.7,93,1.0,,,6.4,19,0,n/a,2026-09-06T04:59:55Z
2026-09-06 17:04:59,9.4,8.4,1001.5,West,267,0.9,3.7,93,1.0,,,6.6,12,0,n/a,2026-09-06T05:04:59Z
2026-09-06 17:09:58,9.4,8.3,1001.8,WSW,246,1.3,4.8,93,1.2,,,6.8,9,0,n/a,2026-09-06T05:09:58Z
2026-09-06 17:14:56,9.2,8.2,1001.9,ESE,110,5.9,11.3,93,1.2,,,7.0,0,0,n/a,2026-09-06T05:14:56Z
2026-09-06 17:19:55,8.7,7.6,1001.8,East,95,3.9,9.7,92.6,1.4,,,7.4,0,0,n/a,2026-09-06T05:19:55Z
2026-09-06 17:24:59,8.6,7.5,1001.9,East,101,4.7,11.3,93,2.0,,,7.8,7,0,n/a,2026-09-06T05:24:59Z
2026-09-06 17:29:57,8.6,7.5,1002.0,ESE,107,5.4,13,93,2.4,,,8.2,7,0,n/a,2026-09-06T05:29:57Z
2026-09-06 17:34:58,8.5,7.4,1002.1,ESE,117,6.5,13,93,2.6,,,8.6,5,0,n/a,2026-09-06T05:34:58Z
2026-09-06 17:39:54,8.4,7.3,1002.2,ESE,117,6.3,14.8,93,3.0,,,8.8,0,0,n/a,2026-09-06T05:39:54Z
2026-09-06 17:44:57,8.2,7.2,1002.4,SE,127,5.3,13,93,3.0,,,9.0,0,0,n/a,2026-09-06T05:44:57Z
2026-09-06 17:49:56,8.1,7.1,1002.5,ESE,113,5.5,13,93,3.2,,,9.2,0,0,n/a,2026-09-06T05:49:56Z
2026-09-06 17:54:55,7.9,6.9,1002.5,ESE,106,9.7,16.7,93,3.4,,,9.4,0,0,n/a,2026-09-06T05:54:55Z
2026-09-06 17:59:59,7.8,6.8,1002.6,ESE,108,6.6,13,93,3.2,,,9.4,0,0,n/a,2026-09-06T05:59:59Z
2026-09-06 18:04:54,7.8,6.8,1002.7,ESE,112,5.5,11.3,93,3.2,,,9.6,0,0,n/a,2026-09-06T06:04:54Z
2026-09-06 18:09:55,7.8,6.7,1002.9,ESE,116,5.5,11.3,93,3.2,,,9.8,0,0,n/a,2026-09-06T06:09:55Z
2026-09-06 18:14:54,7.8,6.7,1003.0,ESE,110,5.1,11.1,93,3.0,,,10.0,0,0,n/a,2026-09-06T06:14:54Z
2026-09-06 18:19:59,7.7,6.6,1003.1,ESE,112,5.9,11.3,93,3.2,,,10.4,0,0,n/a,2026-09-06T06:19:59Z
2026-09-06 18:24:58,7.6,6.6,1003.1,ESE,103,8.6,14.8,93,3.0,,,10.4,0,0,n/a,2026-09-06T06:24:58Z
2026-09-06 18:29:56,7.5,6.5,1003.5,ESE,105,7.1,14.8,93,2.6,,,10.6,0,0,n/a,2026-09-06T06:29:56Z
2026-09-06 18:34:56,7.5,6.4,1003.6,ESE,104,5.4,13,93,2.4,,,10.6,0,0,n/a,2026-09-06T06:34:56Z
2026-09-06 18:39:56,7.5,6.4,1003.7,ESE,115,4.1,11.1,93,2.0,,,10.8,0,0,n/a,2026-09-06T06:39:56Z
2026-09-06 18:44:55,7.5,6.4,1003.7,ESE,120,3.5,6.4,93,2.2,,,11.0,0,0,n/a,2026-09-06T06:44:55Z
2026-09-06 18:49:58,7.5,6.4,1003.9,ESE,106,1.9,5.6,93,2.2,,,11.2,0,0,n/a,2026-09-06T06:49:58Z
2026-09-06 18:54:55,7.5,6.4,1004.1,ESE,119,2.8,5.6,93,2.2,,,11.4,0,0,n/a,2026-09-06T06:54:55Z
2026-09-06 18:59:54,7.4,6.4,1004.2,ESE,115,1.5,3.7,93,2.2,,,11.6,0,0,n/a,2026-09-06T06:59:54Z
2026-09-06 19:04:59,7.4,6.4,1004.4,ESE,115,0.1,1.9,93,2.2,,,11.8,0,0,n/a,2026-09-06T07:04:59Z
2026-09-06 19:09:54,7.4,6.3,1004.4,ESE,115,0.4,1.9,93,2.2,,,12.0,0,0,n/a,2026-09-06T07:09:54Z
2026-09-06 19:14:58,7.3,6.3,1004.5,ESE,115,0.5,1.9,93,2.2,,,12.2,0,0,n/a,2026-09-06T07:14:58Z
2026-09-06 19:19:57,7.3,6.2,1004.7,ESE,115,0.1,1.9,93,2.2,,,12.4,0,0,n/a,2026-09-06T07:19:57Z
2026-09-06 19:24:56,7.3,6.2,1004.7,ESE,115,0.1,1.9,93,2.2,,,12.6,0,0,n/a,2026-09-06T07:24:56Z
2026-09-06 19:29:56,7.3,6.2,1004.9,SE,132,0.8,1.9,93,2.4,,,13.0,0,0,n/a,2026-09-06T07:29:56Z
2026-09-06 19:34:55,7.3,6.2,1005.0,SSW,200,1,3.7,93,2.8,,,13.6,0,0,n/a,2026-09-06T07:34:55Z
2026-09-06 19:39:55,7.3,6.3,1005.1,WNW,288,3,5.6,93,3.4,,,14.0,0,0,n/a,2026-09-06T07:39:55Z
2026-09-06 19:44:55,7.4,6.3,1005.2,WNW,301,1,3.7,93,3.4,,,14.6,0,0,n/a,2026-09-06T07:44:55Z
2026-09-06 19:49:53,7.4,6.3,1005.3,WNW,301,0.6,3.2,93,3.6,,,14.8,0,0,n/a,2026-09-06T07:49:53Z
2026-09-06 19:54:58,7.4,6.3,1005.4,WNW,288,2.3,5.6,93,3.6,,,15.0,0,0,n/a,2026-09-06T07:54:58Z
2026-09-06 19:59:57,7.4,6.3,1005.5,WNW,283,1.1,5.6,93,3.6,,,15.0,0,0,n/a,2026-09-06T07:59:57Z
2026-09-06 20:04:57,7.3,6.3,1005.5,WNW,283,2.2,5.6,93,3.4,,,15.2,0,0,n/a,2026-09-06T08:04:57Z
2026-09-06 20:09:59,7.3,6.2,1005.5,WNW,283,0.6,3.7,93,3.4,,,15.2,0,0,n/a,2026-09-06T08:09:59Z
2026-09-06 20:14:57,7.2,6.2,1005.6,WNW,283,0.5,3.7,93,3.2,,,15.4,0,0,n/a,2026-09-06T08:14:57Z
2026-09-06 20:19:55,7.2,6.2,1005.7,WNW,283,1.4,3.7,93,3.2,,,15.4,0,0,n/a,2026-09-06T08:19:55Z
2026-09-06 20:24:47,7.2,6.1,1005.8,WNW,283,1.2,3.7,93,3.0,,,15.4,0,0,n/a,2026-09-06T08:24:47Z